Sabine Pass, Texas
Current Conditions -  °F | °C
As of 1:53 PM on Thursday 29 Jan 2015 (Local Time) from KBPT Reporting Station
Clear Clear  
Wind Chill: 76°   Ceiling: Unl
Heat Index: 76°   Visibility: 10mi
Dew Point: 57°   Wind: 8mph
Humidity: 52%   Direction: 280°W
Pressure: 30.2"   Gusts: NA
Location:  29.73°N, 93.89°W
Report Text: KBPT 291953Z 28007KT 10SM CLR 24/14 A3020 RMK AO2 SLP225 T02440139
Loading
Personal Weather Stations






























Interactive Weather Map New forecast layout! Learn more

10-Day Weather Forecast

Advertisements
Track Severe Weather on mobile